Richboro, PA

8:40 AM EST on February 27, 2015 (GMT -0500)
Doylestown | Change Station
CLOSE
Current Station
Airport
Location: Doylestown,
Elevation: 394 ft
Nearby Weather Stations

Elev 394 ft 40.33 °N, 75.12 °W | Updated 46 minutes ago

Overcast
Overcast
17 °F
Feels Like 9 °F
N
6
Wind Variable Wind from North

Today
High -- | Low -- °F
--% Chance of Precip.
Yesterday
High -- | Low -- °F
Precip. -- in
6:36 AM 5:49 PM
Waxing Gibbous, 68% visible
Pressure 30.38 in
Visibility 10.0 miles
Clouds Overcast 5000 ft
Windchill 9 °F
Dew Point 8 °F
Humidity 68%
Rainfall 0.00 in
Snow Depth Not available.
UV 0 out of 12
Pollen .50 out of 12
Air Quality Not available.
Flu Activity Not available.
METAR KDYL 271254Z AUTO 01005KT 10SM OVC050 M08/M13 A3034 RMK AO2 SLP286 T10831133

More Conditions Fewer Conditions

Pressure 30.38 in
Visibility 10.0 miles
Clouds Overcast 5000 ft
Windchill 9 °F
Dew Point 8 °F
Humidity 68%
Rainfall 0.00 in
Snow Depth Not available.
UV 0 out of 12
Pollen .50 out of 12
Air Quality Not available.
Flu Activity Not available.
METAR KDYL 271254Z AUTO 01005KT 10SM OVC050 M08/M13 A3034 RMK AO2 SLP286 T10831133

More Conditions Fewer Conditions

Nowcast | as of 7:24 am EST on February 27, 2015

Flurries in the area this morning should end by 10 am. The heavier snow showers are occurring the Philadelphia Wilmington Metro area.

×

10-Day Weather Forecast

Almanac

Astronomy

Feb. 27, 2015 Rise Set
Actual Time
Civil Twilight
Nautical Twilight
Astronomical Twilight
Moon
Length of Visible Light
Length of Day
Tomorrow will be .
, % of the Moon is Illuminated

Today's Extremes

State Highs State Lows

Community

WunderPhotos

Upload Photos

1,800,672 photos uploaded!

WunderBlogs® & News

Nearby

Air Quality

  Air Quality AQ Index Pollutant
Not available.

Snow Depth

Station Depth Elevation

Earthquake Activity

City Distance Mag. Time & Date
Minimum magnitude displayed is 2.5.

Coastal Water Temperatures

Place Temperature

Nearby Weather Stations